Vejrmelding fra flg. lufthavn:

Aalborg

Kodet vejrrapport: 2024/06/16 11:20 EKYT 161120Z AUTO 16017KT 9999 -RA FEW028/// BKN059/// 16/12 Q1006

Vejrrapport

Rapport udsendt: 16-06-2024 13:20

Vejr: Maskingenereret vejrudsigt
Vind: kuling fra syd (160 grader) med 31 km/t 8.7 m/s (17 knob, 20 mph, Vindstyrke 5)
Sigtbarhed: 10 km. eller mere
Vejr: let regn
Skyer: få skyer i 853 m
Skyer: spredte i 1798 m
Temperatur: 16 C
Dugpunkt: 12 C
Luftfugtighed: 77%
Lufttrykket: 1006 hPa


Kodet vejrudsigt: 2024/06/16 12:30 TAF EKYT 161104Z 1612/1712 16012KT 9999 SCT030 BKN070 TEMPO 1612/1621 15012G24KT 4000 SHRA SCT020CB PROB40 TEMPO 1616/1620 TSRA TEMPO 1709/1712 4000 SHRA SCT020CB

Vejrudsigt

Vejrudsigt udsendt: 16-06-2024 kl. 14:30
Vejrudsigt gældende: fra d. 16. kl. 14:00 til d. 17. kl. 14:00

Vind: frisk brise fra syd (160 grader) med 22 km/t 6.2 m/s (12 knob, 14 mph, Vindstyrke 4)
Sigtbarhed: 10 km. eller mere
Skyer: spredte i 914 m
Skyer: spredte i 2134 m

I perioder imellem 14:00 og 23:00:
Vind: frisk brise fra sydøst (150 grader) med 22 km/t 6.2 m/s (12 knob, 14 mph, Vindstyrke 4) kraftige vindstød op til 44 km/t 12.3 m/s (24 knob, 28 mph )
Sigtbarhed: 4000 meter
Vejr: byger med regn
Skyer: spredte i 610 m med cumulonimbus

Imellem 01:00 og 01:00 er der en 40% chance for:

I perioder imellem 18:00 og 22:00:
Vejr: tordenbyger med regn

I perioder imellem 11:00 og 14:00:
Sigtbarhed: 4000 meter
Vejr: byger med regn
Skyer: spredte i 610 m med cumulonimbus